sensor_id;sensor_type;location;lat;lon;timestamp;P1;durP1;ratioP1;P2;durP2;ratioP2
8397;SDS011;4236;54.504;9.588;2023-08-30T00:02:26;54.83;;;52.53;;
8397;SDS011;4236;54.504;9.588;2023-08-30T00:04:57;53.50;;;51.30;;
8397;SDS011;4236;54.504;9.588;2023-08-30T00:07:25;56.00;;;53.80;;
8397;SDS011;4236;54.504;9.588;2023-08-30T00:09:53;56.27;;;53.97;;
8397;SDS011;4236;54.504;9.588;2023-08-30T00:12:20;56.10;;;53.73;;
8397;SDS011;4236;54.504;9.588;2023-08-30T00:14:49;57.67;;;55.27;;
8397;SDS011;4236;54.504;9.588;2023-08-30T00:17:16;56.67;;;54.03;;
8397;SDS011;4236;54.504;9.588;2023-08-30T00:19:46;59.30;;;56.80;;
8397;SDS011;4236;54.504;9.588;2023-08-30T00:22:14;55.80;;;53.60;;
8397;SDS011;4236;54.504;9.588;2023-08-30T00:24:42;56.80;;;54.40;;
8397;SDS011;4236;54.504;9.588;2023-08-30T00:27:09;54.90;;;52.60;;
8397;SDS011;4236;54.504;9.588;2023-08-30T00:29:37;55.80;;;53.73;;
8397;SDS011;4236;54.504;9.588;2023-08-30T00:32:06;63.33;;;60.43;;
8397;SDS011;4236;54.504;9.588;2023-08-30T00:34:34;62.90;;;60.30;;
8397;SDS011;4236;54.504;9.588;2023-08-30T00:37:01;67.70;;;64.27;;
8397;SDS011;4236;54.504;9.588;2023-08-30T00:39:29;64.60;;;62.00;;
8397;SDS011;4236;54.504;9.588;2023-08-30T00:41:56;65.90;;;62.17;;
8397;SDS011;4236;54.504;9.588;2023-08-30T00:44:23;66.73;;;63.53;;
8397;SDS011;4236;54.504;9.588;2023-08-30T00:46:51;68.53;;;65.73;;
8397;SDS011;4236;54.504;9.588;2023-08-30T00:49:20;66.73;;;64.13;;
8397;SDS011;4236;54.504;9.588;2023-08-30T00:51:47;69.17;;;66.07;;
8397;SDS011;4236;54.504;9.588;2023-08-30T00:54:15;73.03;;;69.83;;
8397;SDS011;4236;54.504;9.588;2023-08-30T00:56:43;69.70;;;66.80;;
8397;SDS011;4236;54.504;9.588;2023-08-30T00:59:10;70.37;;;67.37;;
8397;SDS011;4236;54.504;9.588;2023-08-30T01:01:38;67.40;;;64.60;;
8397;SDS011;4236;54.504;9.588;2023-08-30T01:04:06;68.97;;;65.87;;
8397;SDS011;4236;54.504;9.588;2023-08-30T01:06:35;71.57;;;68.47;;
8397;SDS011;4236;54.504;9.588;2023-08-30T01:09:03;73.43;;;70.20;;
8397;SDS011;4236;54.504;9.588;2023-08-30T01:11:32;73.03;;;69.63;;
8397;SDS011;4236;54.504;9.588;2023-08-30T01:14:01;69.67;;;66.57;;
8397;SDS011;4236;54.504;9.588;2023-08-30T01:16:29;71.83;;;68.80;;
8397;SDS011;4236;54.504;9.588;2023-08-30T01:18:58;72.77;;;69.67;;
8397;SDS011;4236;54.504;9.588;2023-08-30T01:21:29;83.20;;;79.70;;
8397;SDS011;4236;54.504;9.588;2023-08-30T01:23:59;79.73;;;76.53;;
8397;SDS011;4236;54.504;9.588;2023-08-30T01:26:29;80.23;;;76.63;;
8397;SDS011;4236;54.504;9.588;2023-08-30T01:29:02;84.50;;;80.90;;
8397;SDS011;4236;54.504;9.588;2023-08-30T01:31:31;85.90;;;81.70;;
8397;SDS011;4236;54.504;9.588;2023-08-30T01:34:00;81.80;;;78.10;;
8397;SDS011;4236;54.504;9.588;2023-08-30T01:36:29;82.63;;;78.83;;
8397;SDS011;4236;54.504;9.588;2023-08-30T01:38:57;81.50;;;77.50;;
8397;SDS011;4236;54.504;9.588;2023-08-30T01:41:25;85.50;;;81.50;;
8397;SDS011;4236;54.504;9.588;2023-08-30T01:43:53;94.30;;;90.10;;
8397;SDS011;4236;54.504;9.588;2023-08-30T01:46:22;87.20;;;83.30;;
8397;SDS011;4236;54.504;9.588;2023-08-30T01:48:50;85.40;;;81.87;;
8397;SDS011;4236;54.504;9.588;2023-08-30T01:51:17;85.10;;;81.43;;
8397;SDS011;4236;54.504;9.588;2023-08-30T01:53:45;84.43;;;80.80;;
8397;SDS011;4236;54.504;9.588;2023-08-30T01:56:13;88.70;;;84.73;;
8397;SDS011;4236;54.504;9.588;2023-08-30T01:58:40;88.90;;;84.93;;
8397;SDS011;4236;54.504;9.588;2023-08-30T02:01:08;85.53;;;81.73;;
8397;SDS011;4236;54.504;9.588;2023-08-30T02:03:37;88.37;;;84.43;;
8397;SDS011;4236;54.504;9.588;2023-08-30T02:06:06;84.37;;;80.73;;
8397;SDS011;4236;54.504;9.588;2023-08-30T02:08:36;87.27;;;83.67;;
8397;SDS011;4236;54.504;9.588;2023-08-30T02:11:07;89.53;;;85.87;;
8397;SDS011;4236;54.504;9.588;2023-08-30T02:13:34;86.03;;;82.33;;
8397;SDS011;4236;54.504;9.588;2023-08-30T02:16:03;87.13;;;83.00;;
8397;SDS011;4236;54.504;9.588;2023-08-30T02:18:31;87.10;;;83.50;;
8397;SDS011;4236;54.504;9.588;2023-08-30T02:21:01;89.80;;;85.67;;
8397;SDS011;4236;54.504;9.588;2023-08-30T02:23:29;89.83;;;86.13;;
8397;SDS011;4236;54.504;9.588;2023-08-30T02:25:56;86.87;;;82.97;;
8397;SDS011;4236;54.504;9.588;2023-08-30T02:28:24;92.13;;;88.03;;
8397;SDS011;4236;54.504;9.588;2023-08-30T02:30:52;91.43;;;87.13;;
8397;SDS011;4236;54.504;9.588;2023-08-30T02:33:20;96.43;;;92.13;;
8397;SDS011;4236;54.504;9.588;2023-08-30T02:35:48;87.63;;;83.90;;
8397;SDS011;4236;54.504;9.588;2023-08-30T02:38:17;89.80;;;85.90;;
8397;SDS011;4236;54.504;9.588;2023-08-30T02:40:44;92.40;;;88.33;;
8397;SDS011;4236;54.504;9.588;2023-08-30T02:43:12;91.73;;;87.57;;
8397;SDS011;4236;54.504;9.588;2023-08-30T02:45:39;92.97;;;89.00;;
8397;SDS011;4236;54.504;9.588;2023-08-30T02:48:06;95.03;;;90.90;;
8397;SDS011;4236;54.504;9.588;2023-08-30T02:50:35;91.70;;;88.00;;
8397;SDS011;4236;54.504;9.588;2023-08-30T02:53:02;92.77;;;88.67;;
8397;SDS011;4236;54.504;9.588;2023-08-30T02:55:31;93.13;;;89.23;;
8397;SDS011;4236;54.504;9.588;2023-08-30T02:57:59;95.03;;;90.63;;
8397;SDS011;4236;54.504;9.588;2023-08-30T03:00:26;97.10;;;92.60;;
8397;SDS011;4236;54.504;9.588;2023-08-30T03:02:54;99.97;;;95.20;;
8397;SDS011;4236;54.504;9.588;2023-08-30T03:05:21;100.87;;;96.47;;
8397;SDS011;4236;54.504;9.588;2023-08-30T03:07:49;97.40;;;93.20;;
8397;SDS011;4236;54.504;9.588;2023-08-30T03:10:17;101.03;;;96.37;;
8397;SDS011;4236;54.504;9.588;2023-08-30T03:12:46;98.77;;;94.23;;
8397;SDS011;4236;54.504;9.588;2023-08-30T03:15:13;98.63;;;94.43;;
8397;SDS011;4236;54.504;9.588;2023-08-30T03:17:41;99.80;;;95.10;;
8397;SDS011;4236;54.504;9.588;2023-08-30T03:20:09;99.03;;;94.67;;
8397;SDS011;4236;54.504;9.588;2023-08-30T03:22:36;101.27;;;96.77;;
8397;SDS011;4236;54.504;9.588;2023-08-30T03:25:04;100.70;;;96.37;;
8397;SDS011;4236;54.504;9.588;2023-08-30T03:27:32;101.73;;;96.93;;
8397;SDS011;4236;54.504;9.588;2023-08-30T03:30:01;100.13;;;95.50;;
8397;SDS011;4236;54.504;9.588;2023-08-30T03:32:29;96.33;;;91.93;;
8397;SDS011;4236;54.504;9.588;2023-08-30T03:34:58;102.83;;;98.03;;
8397;SDS011;4236;54.504;9.588;2023-08-30T03:37:26;97.67;;;93.53;;
8397;SDS011;4236;54.504;9.588;2023-08-30T03:39:53;102.97;;;98.33;;
8397;SDS011;4236;54.504;9.588;2023-08-30T03:42:20;101.73;;;96.97;;
8397;SDS011;4236;54.504;9.588;2023-08-30T03:44:48;100.40;;;95.53;;
8397;SDS011;4236;54.504;9.588;2023-08-30T03:47:17;99.40;;;94.50;;
8397;SDS011;4236;54.504;9.588;2023-08-30T03:49:44;95.67;;;91.00;;
8397;SDS011;4236;54.504;9.588;2023-08-30T03:52:12;100.20;;;95.30;;
8397;SDS011;4236;54.504;9.588;2023-08-30T03:54:40;102.43;;;97.53;;
8397;SDS011;4236;54.504;9.588;2023-08-30T03:57:07;95.60;;;91.40;;
8397;SDS011;4236;54.504;9.588;2023-08-30T03:59:35;101.20;;;96.90;;
8397;SDS011;4236;54.504;9.588;2023-08-30T04:02:02;94.60;;;90.23;;
8397;SDS011;4236;54.504;9.588;2023-08-30T04:04:31;97.80;;;93.20;;
8397;SDS011;4236;54.504;9.588;2023-08-30T04:06:59;106.33;;;101.53;;
8397;SDS011;4236;54.504;9.588;2023-08-30T04:09:26;99.90;;;95.40;;
8397;SDS011;4236;54.504;9.588;2023-08-30T04:11:54;104.33;;;99.83;;
8397;SDS011;4236;54.504;9.588;2023-08-30T04:14:21;105.10;;;100.50;;
8397;SDS011;4236;54.504;9.588;2023-08-30T04:16:50;107.60;;;102.90;;
8397;SDS011;4236;54.504;9.588;2023-08-30T04:19:18;104.40;;;99.67;;
8397;SDS011;4236;54.504;9.588;2023-08-30T04:21:47;106.00;;;101.30;;
8397;SDS011;4236;54.504;9.588;2023-08-30T04:24:15;106.70;;;102.10;;
8397;SDS011;4236;54.504;9.588;2023-08-30T04:26:42;113.20;;;107.80;;
8397;SDS011;4236;54.504;9.588;2023-08-30T04:29:10;100.57;;;95.87;;
8397;SDS011;4236;54.504;9.588;2023-08-30T04:31:37;102.47;;;97.10;;
8397;SDS011;4236;54.504;9.588;2023-08-30T04:34:05;104.03;;;98.77;;
8397;SDS011;4236;54.504;9.588;2023-08-30T04:36:32;104.03;;;99.07;;
8397;SDS011;4236;54.504;9.588;2023-08-30T04:39:01;104.07;;;98.87;;
8397;SDS011;4236;54.504;9.588;2023-08-30T04:41:28;105.47;;;100.63;;
8397;SDS011;4236;54.504;9.588;2023-08-30T04:43:56;102.03;;;97.03;;
8397;SDS011;4236;54.504;9.588;2023-08-30T04:46:24;94.97;;;90.37;;
8397;SDS011;4236;54.504;9.588;2023-08-30T04:48:51;105.30;;;100.00;;
8397;SDS011;4236;54.504;9.588;2023-08-30T04:51:19;99.90;;;94.90;;
8397;SDS011;4236;54.504;9.588;2023-08-30T04:53:46;96.20;;;91.40;;
8397;SDS011;4236;54.504;9.588;2023-08-30T04:56:15;97.87;;;93.17;;
8397;SDS011;4236;54.504;9.588;2023-08-30T04:58:44;98.87;;;94.07;;
8397;SDS011;4236;54.504;9.588;2023-08-30T05:01:11;94.20;;;89.13;;
8397;SDS011;4236;54.504;9.588;2023-08-30T05:03:41;89.33;;;85.10;;
8397;SDS011;4236;54.504;9.588;2023-08-30T05:06:08;87.73;;;83.20;;
8397;SDS011;4236;54.504;9.588;2023-08-30T05:08:36;83.30;;;79.10;;
8397;SDS011;4236;54.504;9.588;2023-08-30T05:11:03;85.00;;;80.90;;
8397;SDS011;4236;54.504;9.588;2023-08-30T05:13:33;90.43;;;86.00;;
8397;SDS011;4236;54.504;9.588;2023-08-30T05:16:02;87.17;;;82.57;;
8397;SDS011;4236;54.504;9.588;2023-08-30T05:18:29;79.17;;;75.10;;
8397;SDS011;4236;54.504;9.588;2023-08-30T05:20:57;69.30;;;65.60;;
8397;SDS011;4236;54.504;9.588;2023-08-30T05:23:24;72.07;;;68.37;;
8397;SDS011;4236;54.504;9.588;2023-08-30T05:25:52;69.10;;;65.80;;
8397;SDS011;4236;54.504;9.588;2023-08-30T05:28:20;68.50;;;64.80;;
8397;SDS011;4236;54.504;9.588;2023-08-30T05:30:48;65.47;;;61.57;;
8397;SDS011;4236;54.504;9.588;2023-08-30T05:33:16;62.80;;;59.40;;
8397;SDS011;4236;54.504;9.588;2023-08-30T05:35:43;61.70;;;58.40;;
8397;SDS011;4236;54.504;9.588;2023-08-30T05:38:11;56.47;;;53.60;;
8397;SDS011;4236;54.504;9.588;2023-08-30T05:40:38;56.83;;;53.53;;
8397;SDS011;4236;54.504;9.588;2023-08-30T05:43:08;51.80;;;48.80;;
8397;SDS011;4236;54.504;9.588;2023-08-30T05:45:36;54.57;;;51.03;;
8397;SDS011;4236;54.504;9.588;2023-08-30T05:48:06;51.93;;;48.97;;
8397;SDS011;4236;54.504;9.588;2023-08-30T05:50:33;52.27;;;49.07;;
8397;SDS011;4236;54.504;9.588;2023-08-30T05:53:02;51.60;;;48.20;;
8397;SDS011;4236;54.504;9.588;2023-08-30T05:55:30;52.13;;;49.23;;
8397;SDS011;4236;54.504;9.588;2023-08-30T05:57:57;53.13;;;49.70;;
8397;SDS011;4236;54.504;9.588;2023-08-30T06:00:25;45.50;;;42.87;;
8397;SDS011;4236;54.504;9.588;2023-08-30T06:02:52;48.53;;;45.30;;
8397;SDS011;4236;54.504;9.588;2023-08-30T06:05:21;45.40;;;42.63;;
8397;SDS011;4236;54.504;9.588;2023-08-30T06:07:49;42.00;;;39.50;;
8397;SDS011;4236;54.504;9.588;2023-08-30T06:10:16;40.27;;;37.63;;
8397;SDS011;4236;54.504;9.588;2023-08-30T06:12:44;42.60;;;40.00;;
8397;SDS011;4236;54.504;9.588;2023-08-30T06:15:11;40.33;;;38.03;;
8397;SDS011;4236;54.504;9.588;2023-08-30T06:17:39;39.97;;;37.70;;
8397;SDS011;4236;54.504;9.588;2023-08-30T06:20:07;41.80;;;39.27;;
8397;SDS011;4236;54.504;9.588;2023-08-30T06:22:35;40.07;;;37.87;;
8397;SDS011;4236;54.504;9.588;2023-08-30T06:25:03;38.47;;;36.33;;
8397;SDS011;4236;54.504;9.588;2023-08-30T06:27:33;39.37;;;37.17;;
8397;SDS011;4236;54.504;9.588;2023-08-30T06:30:00;37.77;;;35.70;;
8397;SDS011;4236;54.504;9.588;2023-08-30T06:32:29;40.23;;;37.87;;
8397;SDS011;4236;54.504;9.588;2023-08-30T06:34:57;39.73;;;37.13;;
8397;SDS011;4236;54.504;9.588;2023-08-30T06:37:25;39.00;;;36.80;;
8397;SDS011;4236;54.504;9.588;2023-08-30T06:39:54;35.43;;;33.33;;
8397;SDS011;4236;54.504;9.588;2023-08-30T06:42:22;38.23;;;35.87;;
8397;SDS011;4236;54.504;9.588;2023-08-30T06:44:50;37.83;;;35.67;;
8397;SDS011;4236;54.504;9.588;2023-08-30T06:47:18;38.03;;;35.83;;
8397;SDS011;4236;54.504;9.588;2023-08-30T06:49:45;36.57;;;34.47;;
8397;SDS011;4236;54.504;9.588;2023-08-30T06:52:13;36.07;;;33.93;;
8397;SDS011;4236;54.504;9.588;2023-08-30T06:54:40;37.20;;;34.90;;
8397;SDS011;4236;54.504;9.588;2023-08-30T06:57:09;35.40;;;33.50;;
8397;SDS011;4236;54.504;9.588;2023-08-30T06:59:36;32.90;;;31.00;;
8397;SDS011;4236;54.504;9.588;2023-08-30T07:02:04;32.50;;;30.70;;
8397;SDS011;4236;54.504;9.588;2023-08-30T07:04:31;33.30;;;31.53;;
8397;SDS011;4236;54.504;9.588;2023-08-30T07:06:59;32.20;;;30.50;;
8397;SDS011;4236;54.504;9.588;2023-08-30T07:09:26;30.60;;;29.00;;
8397;SDS011;4236;54.504;9.588;2023-08-30T07:11:56;29.83;;;28.43;;
8397;SDS011;4236;54.504;9.588;2023-08-30T07:14:24;32.37;;;30.30;;
8397;SDS011;4236;54.504;9.588;2023-08-30T07:16:52;30.43;;;28.77;;
8397;SDS011;4236;54.504;9.588;2023-08-30T07:19:20;27.90;;;26.27;;
8397;SDS011;4236;54.504;9.588;2023-08-30T07:21:47;30.33;;;28.63;;
8397;SDS011;4236;54.504;9.588;2023-08-30T07:24:15;30.50;;;28.63;;
8397;SDS011;4236;54.504;9.588;2023-08-30T07:26:42;29.00;;;27.50;;
8397;SDS011;4236;54.504;9.588;2023-08-30T07:29:10;31.33;;;29.60;;
8397;SDS011;4236;54.504;9.588;2023-08-30T07:31:39;31.60;;;29.70;;
8397;SDS011;4236;54.504;9.588;2023-08-30T07:34:08;27.90;;;26.40;;
8397;SDS011;4236;54.504;9.588;2023-08-30T07:36:36;27.27;;;25.87;;
8397;SDS011;4236;54.504;9.588;2023-08-30T07:39:13;28.63;;;27.03;;
8397;SDS011;4236;54.504;9.588;2023-08-30T07:41:40;28.40;;;26.90;;
8397;SDS011;4236;54.504;9.588;2023-08-30T07:44:08;26.40;;;24.93;;
8397;SDS011;4236;54.504;9.588;2023-08-30T07:46:35;25.17;;;23.87;;
8397;SDS011;4236;54.504;9.588;2023-08-30T07:49:04;25.30;;;23.80;;
8397;SDS011;4236;54.504;9.588;2023-08-30T07:51:32;23.50;;;22.27;;
8397;SDS011;4236;54.504;9.588;2023-08-30T07:53:59;22.83;;;21.63;;
8397;SDS011;4236;54.504;9.588;2023-08-30T07:56:30;19.53;;;18.43;;
8397;SDS011;4236;54.504;9.588;2023-08-30T07:58:57;19.60;;;18.60;;
8397;SDS011;4236;54.504;9.588;2023-08-30T08:01:25;20.40;;;19.20;;
8397;SDS011;4236;54.504;9.588;2023-08-30T08:03:52;20.00;;;18.70;;
8397;SDS011;4236;54.504;9.588;2023-08-30T08:06:34;18.90;;;17.80;;
8397;SDS011;4236;54.504;9.588;2023-08-30T08:09:03;19.53;;;18.23;;
8397;SDS011;4236;54.504;9.588;2023-08-30T08:11:31;22.23;;;20.73;;
8397;SDS011;4236;54.504;9.588;2023-08-30T08:13:58;20.30;;;19.00;;
8397;SDS011;4236;54.504;9.588;2023-08-30T08:16:26;18.97;;;17.70;;
8397;SDS011;4236;54.504;9.588;2023-08-30T08:18:53;17.33;;;16.37;;
8397;SDS011;4236;54.504;9.588;2023-08-30T08:21:24;19.93;;;18.53;;
8397;SDS011;4236;54.504;9.588;2023-08-30T08:23:53;20.93;;;19.53;;
8397;SDS011;4236;54.504;9.588;2023-08-30T08:26:20;18.70;;;17.50;;
8397;SDS011;4236;54.504;9.588;2023-08-30T08:28:48;18.27;;;17.10;;
8397;SDS011;4236;54.504;9.588;2023-08-30T08:31:17;18.73;;;17.63;;
8397;SDS011;4236;54.504;9.588;2023-08-30T08:33:45;20.30;;;18.67;;
8397;SDS011;4236;54.504;9.588;2023-08-30T08:36:12;19.77;;;18.50;;
8397;SDS011;4236;54.504;9.588;2023-08-30T08:38:40;15.70;;;14.80;;
8397;SDS011;4236;54.504;9.588;2023-08-30T08:41:09;18.80;;;17.20;;
8397;SDS011;4236;54.504;9.588;2023-08-30T08:43:38;18.37;;;17.23;;
8397;SDS011;4236;54.504;9.588;2023-08-30T08:46:07;18.97;;;17.60;;
8397;SDS011;4236;54.504;9.588;2023-08-30T08:48:37;21.17;;;17.37;;
8397;SDS011;4236;54.504;9.588;2023-08-30T08:51:06;19.63;;;18.07;;
8397;SDS011;4236;54.504;9.588;2023-08-30T08:53:34;20.43;;;18.80;;
8397;SDS011;4236;54.504;9.588;2023-08-30T08:56:02;16.97;;;15.77;;
8397;SDS011;4236;54.504;9.588;2023-08-30T08:58:31;17.20;;;16.07;;
8397;SDS011;4236;54.504;9.588;2023-08-30T09:00:59;15.13;;;14.13;;
8397;SDS011;4236;54.504;9.588;2023-08-30T09:03:27;16.30;;;15.20;;
8397;SDS011;4236;54.504;9.588;2023-08-30T09:05:54;13.77;;;12.93;;
8397;SDS011;4236;54.504;9.588;2023-08-30T09:08:22;14.20;;;13.27;;
8397;SDS011;4236;54.504;9.588;2023-08-30T09:10:50;13.37;;;12.27;;
8397;SDS011;4236;54.504;9.588;2023-08-30T09:13:18;12.97;;;12.00;;
8397;SDS011;4236;54.504;9.588;2023-08-30T09:15:48;11.60;;;10.90;;
8397;SDS011;4236;54.504;9.588;2023-08-30T09:18:16;11.23;;;10.53;;
8397;SDS011;4236;54.504;9.588;2023-08-30T09:20:43;11.97;;;11.17;;
8397;SDS011;4236;54.504;9.588;2023-08-30T09:23:17;11.53;;;10.83;;
8397;SDS011;4236;54.504;9.588;2023-08-30T09:25:46;13.10;;;12.13;;
8397;SDS011;4236;54.504;9.588;2023-08-30T09:28:14;11.30;;;10.50;;
8397;SDS011;4236;54.504;9.588;2023-08-30T09:30:41;11.17;;;10.50;;
8397;SDS011;4236;54.504;9.588;2023-08-30T09:33:11;11.70;;;10.87;;
8397;SDS011;4236;54.504;9.588;2023-08-30T09:35:45;13.30;;;12.30;;
8397;SDS011;4236;54.504;9.588;2023-08-30T09:38:16;12.47;;;11.53;;
8397;SDS011;4236;54.504;9.588;2023-08-30T09:40:44;12.43;;;11.43;;
8397;SDS011;4236;54.504;9.588;2023-08-30T09:43:11;11.47;;;10.57;;
8397;SDS011;4236;54.504;9.588;2023-08-30T09:45:39;10.87;;;10.00;;
8397;SDS011;4236;54.504;9.588;2023-08-30T09:48:07;10.43;;;9.50;;
8397;SDS011;4236;54.504;9.588;2023-08-30T09:50:36;9.90;;;9.23;;
8397;SDS011;4236;54.504;9.588;2023-08-30T09:53:06;8.83;;;8.30;;
8397;SDS011;4236;54.504;9.588;2023-08-30T09:55:34;9.70;;;8.70;;
8397;SDS011;4236;54.504;9.588;2023-08-30T09:58:02;8.90;;;8.10;;
8397;SDS011;4236;54.504;9.588;2023-08-30T10:00:30;8.50;;;7.87;;
8397;SDS011;4236;54.504;9.588;2023-08-30T10:02:58;9.43;;;8.60;;
8397;SDS011;4236;54.504;9.588;2023-08-30T10:05:47;9.37;;;8.67;;
8397;SDS011;4236;54.504;9.588;2023-08-30T10:08:15;7.90;;;7.20;;
8397;SDS011;4236;54.504;9.588;2023-08-30T10:10:43;9.43;;;8.83;;
8397;SDS011;4236;54.504;9.588;2023-08-30T10:13:10;9.40;;;8.50;;
8397;SDS011;4236;54.504;9.588;2023-08-30T10:15:40;10.97;;;10.03;;
8397;SDS011;4236;54.504;9.588;2023-08-30T10:18:08;10.63;;;9.93;;
8397;SDS011;4236;54.504;9.588;2023-08-30T10:20:36;10.23;;;9.43;;
8397;SDS011;4236;54.504;9.588;2023-08-30T10:23:08;10.00;;;9.30;;
8397;SDS011;4236;54.504;9.588;2023-08-30T10:25:37;10.17;;;9.47;;
8397;SDS011;4236;54.504;9.588;2023-08-30T10:28:06;8.80;;;8.00;;
8397;SDS011;4236;54.504;9.588;2023-08-30T10:30:34;10.13;;;9.43;;
8397;SDS011;4236;54.504;9.588;2023-08-30T10:33:02;10.07;;;9.13;;
8397;SDS011;4236;54.504;9.588;2023-08-30T10:35:30;9.27;;;8.60;;
8397;SDS011;4236;54.504;9.588;2023-08-30T10:37:59;10.80;;;10.10;;
8397;SDS011;4236;54.504;9.588;2023-08-30T10:40:28;11.03;;;10.10;;
8397;SDS011;4236;54.504;9.588;2023-08-30T10:42:58;15.37;;;10.93;;
8397;SDS011;4236;54.504;9.588;2023-08-30T10:45:26;10.90;;;9.90;;
8397;SDS011;4236;54.504;9.588;2023-08-30T10:47:56;11.07;;;10.27;;
8397;SDS011;4236;54.504;9.588;2023-08-30T10:50:27;18.47;;;12.00;;
8397;SDS011;4236;54.504;9.588;2023-08-30T10:52:55;10.90;;;10.10;;
8397;SDS011;4236;54.504;9.588;2023-08-30T10:55:23;10.27;;;9.30;;
8397;SDS011;4236;54.504;9.588;2023-08-30T10:57:59;12.20;;;10.27;;
8397;SDS011;4236;54.504;9.588;2023-08-30T11:00:27;8.70;;;8.00;;
8397;SDS011;4236;54.504;9.588;2023-08-30T11:02:55;8.33;;;7.63;;
8397;SDS011;4236;54.504;9.588;2023-08-30T11:05:23;17.07;;;9.50;;
8397;SDS011;4236;54.504;9.588;2023-08-30T11:07:51;8.63;;;7.97;;
8397;SDS011;4236;54.504;9.588;2023-08-30T11:10:19;8.50;;;7.87;;
8397;SDS011;4236;54.504;9.588;2023-08-30T11:12:47;9.67;;;8.53;;
8397;SDS011;4236;54.504;9.588;2023-08-30T11:15:17;9.30;;;8.33;;
8397;SDS011;4236;54.504;9.588;2023-08-30T11:17:45;8.70;;;8.10;;
8397;SDS011;4236;54.504;9.588;2023-08-30T11:20:13;7.93;;;7.33;;
8397;SDS011;4236;54.504;9.588;2023-08-30T11:22:42;12.83;;;8.37;;
8397;SDS011;4236;54.504;9.588;2023-08-30T11:25:10;9.37;;;8.20;;
8397;SDS011;4236;54.504;9.588;2023-08-30T11:27:37;9.17;;;8.40;;
8397;SDS011;4236;54.504;9.588;2023-08-30T11:30:06;8.30;;;7.60;;
8397;SDS011;4236;54.504;9.588;2023-08-30T11:32:36;9.37;;;8.50;;
8397;SDS011;4236;54.504;9.588;2023-08-30T11:35:04;8.53;;;7.87;;
8397;SDS011;4236;54.504;9.588;2023-08-30T11:37:32;9.60;;;8.90;;
8397;SDS011;4236;54.504;9.588;2023-08-30T11:40:00;10.90;;;9.93;;
8397;SDS011;4236;54.504;9.588;2023-08-30T11:42:28;9.73;;;9.00;;
8397;SDS011;4236;54.504;9.588;2023-08-30T11:44:57;10.83;;;9.97;;
8397;SDS011;4236;54.504;9.588;2023-08-30T11:47:25;10.30;;;9.43;;
8397;SDS011;4236;54.504;9.588;2023-08-30T11:49:55;8.80;;;8.03;;
8397;SDS011;4236;54.504;9.588;2023-08-30T11:52:23;9.60;;;8.73;;
8397;SDS011;4236;54.504;9.588;2023-08-30T11:54:51;12.37;;;9.27;;
8397;SDS011;4236;54.504;9.588;2023-08-30T11:57:19;10.00;;;8.97;;
8397;SDS011;4236;54.504;9.588;2023-08-30T11:59:47;11.83;;;8.87;;
8397;SDS011;4236;54.504;9.588;2023-08-30T12:02:16;21.90;;;9.00;;
8397;SDS011;4236;54.504;9.588;2023-08-30T12:04:44;10.20;;;8.17;;
8397;SDS011;4236;54.504;9.588;2023-08-30T12:07:21;11.53;;;8.10;;
8397;SDS011;4236;54.504;9.588;2023-08-30T12:09:50;9.80;;;7.37;;
8397;SDS011;4236;54.504;9.588;2023-08-30T12:12:17;10.40;;;8.10;;
8397;SDS011;4236;54.504;9.588;2023-08-30T12:14:46;8.27;;;7.57;;
8397;SDS011;4236;54.504;9.588;2023-08-30T12:17:21;8.10;;;7.40;;
8397;SDS011;4236;54.504;9.588;2023-08-30T12:19:54;8.53;;;7.93;;
8397;SDS011;4236;54.504;9.588;2023-08-30T12:22:23;15.80;;;9.67;;
8397;SDS011;4236;54.504;9.588;2023-08-30T12:24:51;8.50;;;7.80;;
8397;SDS011;4236;54.504;9.588;2023-08-30T12:27:19;8.37;;;7.67;;
8397;SDS011;4236;54.504;9.588;2023-08-30T12:29:46;8.10;;;7.50;;
8397;SDS011;4236;54.504;9.588;2023-08-30T12:32:14;8.40;;;6.63;;
8397;SDS011;4236;54.504;9.588;2023-08-30T12:34:42;6.80;;;6.10;;
8397;SDS011;4236;54.504;9.588;2023-08-30T12:37:10;7.83;;;7.13;;
8397;SDS011;4236;54.504;9.588;2023-08-30T12:39:38;7.97;;;7.37;;
8397;SDS011;4236;54.504;9.588;2023-08-30T12:42:06;7.43;;;6.83;;
8397;SDS011;4236;54.504;9.588;2023-08-30T12:44:35;6.60;;;6.10;;
8397;SDS011;4236;54.504;9.588;2023-08-30T12:47:03;7.60;;;6.90;;
8397;SDS011;4236;54.504;9.588;2023-08-30T12:49:31;7.93;;;7.40;;
8397;SDS011;4236;54.504;9.588;2023-08-30T12:51:59;8.93;;;8.13;;
8397;SDS011;4236;54.504;9.588;2023-08-30T12:54:26;9.00;;;8.27;;
8397;SDS011;4236;54.504;9.588;2023-08-30T12:56:55;9.10;;;8.33;;
8397;SDS011;4236;54.504;9.588;2023-08-30T12:59:23;12.50;;;8.53;;
8397;SDS011;4236;54.504;9.588;2023-08-30T13:01:50;8.97;;;8.17;;
8397;SDS011;4236;54.504;9.588;2023-08-30T13:04:18;9.80;;;8.73;;
8397;SDS011;4236;54.504;9.588;2023-08-30T13:06:45;8.70;;;8.00;;
8397;SDS011;4236;54.504;9.588;2023-08-30T13:09:13;9.17;;;8.47;;
8397;SDS011;4236;54.504;9.588;2023-08-30T13:11:40;9.17;;;8.50;;
8397;SDS011;4236;54.504;9.588;2023-08-30T13:14:09;9.27;;;8.33;;
8397;SDS011;4236;54.504;9.588;2023-08-30T13:16:37;7.80;;;7.20;;
8397;SDS011;4236;54.504;9.588;2023-08-30T13:19:04;9.10;;;8.40;;
8397;SDS011;4236;54.504;9.588;2023-08-30T13:21:32;8.53;;;7.83;;
8397;SDS011;4236;54.504;9.588;2023-08-30T13:24:07;8.17;;;7.47;;
8397;SDS011;4236;54.504;9.588;2023-08-30T13:26:34;8.33;;;7.73;;
8397;SDS011;4236;54.504;9.588;2023-08-30T13:29:02;9.97;;;8.70;;
8397;SDS011;4236;54.504;9.588;2023-08-30T13:31:31;9.50;;;8.60;;
8397;SDS011;4236;54.504;9.588;2023-08-30T13:33:58;11.40;;;10.30;;
8397;SDS011;4236;54.504;9.588;2023-08-30T13:36:26;9.57;;;8.57;;
8397;SDS011;4236;54.504;9.588;2023-08-30T13:38:56;14.20;;;9.37;;
8397;SDS011;4236;54.504;9.588;2023-08-30T13:41:24;8.87;;;8.07;;
8397;SDS011;4236;54.504;9.588;2023-08-30T13:43:51;11.23;;;10.40;;
8397;SDS011;4236;54.504;9.588;2023-08-30T13:46:19;10.83;;;9.53;;
8397;SDS011;4236;54.504;9.588;2023-08-30T13:48:48;10.03;;;9.23;;
8397;SDS011;4236;54.504;9.588;2023-08-30T13:51:20;8.30;;;7.67;;
8397;SDS011;4236;54.504;9.588;2023-08-30T13:53:48;23.30;;;10.17;;
8397;SDS011;4236;54.504;9.588;2023-08-30T13:56:15;12.03;;;9.63;;
8397;SDS011;4236;54.504;9.588;2023-08-30T13:58:43;13.77;;;10.10;;
8397;SDS011;4236;54.504;9.588;2023-08-30T14:01:11;10.07;;;9.27;;
8397;SDS011;4236;54.504;9.588;2023-08-30T14:03:38;15.13;;;8.73;;
8397;SDS011;4236;54.504;9.588;2023-08-30T14:06:07;13.27;;;9.80;;
8397;SDS011;4236;54.504;9.588;2023-08-30T14:08:35;11.97;;;9.10;;
8397;SDS011;4236;54.504;9.588;2023-08-30T14:11:03;10.10;;;8.43;;
8397;SDS011;4236;54.504;9.588;2023-08-30T14:13:31;9.03;;;8.00;;
8397;SDS011;4236;54.504;9.588;2023-08-30T14:15:59;11.00;;;8.33;;
8397;SDS011;4236;54.504;9.588;2023-08-30T14:18:27;9.47;;;8.67;;
8397;SDS011;4236;54.504;9.588;2023-08-30T14:20:55;9.70;;;8.90;;
8397;SDS011;4236;54.504;9.588;2023-08-30T14:23:24;10.97;;;9.80;;
8397;SDS011;4236;54.504;9.588;2023-08-30T14:25:55;8.10;;;7.30;;
8397;SDS011;4236;54.504;9.588;2023-08-30T14:28:23;10.00;;;9.10;;
8397;SDS011;4236;54.504;9.588;2023-08-30T14:30:50;10.30;;;9.40;;
8397;SDS011;4236;54.504;9.588;2023-08-30T14:33:18;9.43;;;8.50;;
8397;SDS011;4236;54.504;9.588;2023-08-30T14:35:45;10.03;;;9.10;;
8397;SDS011;4236;54.504;9.588;2023-08-30T14:38:13;10.17;;;9.17;;
8397;SDS011;4236;54.504;9.588;2023-08-30T14:40:42;10.70;;;9.70;;
8397;SDS011;4236;54.504;9.588;2023-08-30T14:43:09;10.37;;;9.37;;
8397;SDS011;4236;54.504;9.588;2023-08-30T14:45:37;10.23;;;9.43;;
8397;SDS011;4236;54.504;9.588;2023-08-30T14:48:04;9.00;;;8.20;;
8397;SDS011;4236;54.504;9.588;2023-08-30T14:50:32;11.80;;;10.60;;
8397;SDS011;4236;54.504;9.588;2023-08-30T14:52:59;9.17;;;8.57;;
8397;SDS011;4236;54.504;9.588;2023-08-30T14:55:27;8.20;;;7.50;;
8397;SDS011;4236;54.504;9.588;2023-08-30T14:57:56;9.87;;;9.07;;
8397;SDS011;4236;54.504;9.588;2023-08-30T15:00:23;8.93;;;8.23;;